createdAt,value
2022-09-24T00:00:45.867Z,8.75
2022-09-24T00:03:12.258Z,8.52
2022-09-24T00:05:41.919Z,8.75
2022-09-24T00:08:08.916Z,9.50
2022-09-24T00:10:39.468Z,9.35
2022-09-24T00:13:07.039Z,9.32
2022-09-24T00:15:40.494Z,8.82
2022-09-24T00:18:08.032Z,12.68
2022-09-24T00:20:34.986Z,11.32
2022-09-24T00:23:02.030Z,9.73
2022-09-24T00:25:47.128Z,10.55
2022-09-24T00:28:14.035Z,9.77
2022-09-24T00:30:41.155Z,9.73
2022-09-24T00:33:07.668Z,11.93
2022-09-24T00:35:34.911Z,11.85
2022-09-24T00:38:01.282Z,8.10
2022-09-24T00:40:32.186Z,9.07
2022-09-24T00:42:58.599Z,10.15
2022-09-24T00:45:25.430Z,13.15
2022-09-24T00:47:52.758Z,11.20
2022-09-24T00:50:26.654Z,11.75
2022-09-24T00:52:55.226Z,10.18
2022-09-24T00:55:22.325Z,9.20
2022-09-24T00:57:50.106Z,10.00
2022-09-24T01:00:16.591Z,9.43
2022-09-24T01:02:45.202Z,7.75
2022-09-24T01:05:11.514Z,8.90
2022-09-24T01:07:37.876Z,12.13
2022-09-24T01:10:04.842Z,9.25
2022-09-24T01:12:45.888Z,11.23
2022-09-24T01:15:24.162Z,10.57
2022-09-24T01:18:00.275Z,8.35
2022-09-24T01:20:26.584Z,11.02
2022-09-24T01:23:11.843Z,9.25
2022-09-24T01:25:38.258Z,11.77
2022-09-24T01:28:23.151Z,8.15
2022-09-24T01:30:50.943Z,11.93
2022-09-24T01:33:20.073Z,11.20
2022-09-24T01:35:50.145Z,9.13
2022-09-24T01:38:18.287Z,10.38
2022-09-24T01:40:46.206Z,12.48
2022-09-24T01:43:13.258Z,8.63
2022-09-24T01:45:40.200Z,10.95
2022-09-24T01:48:07.452Z,11.25
2022-09-24T01:50:38.596Z,9.75
2022-09-24T01:53:06.721Z,10.98
2022-09-24T01:55:35.572Z,9.95
2022-09-24T01:58:05.042Z,12.25
2022-09-24T02:00:31.490Z,10.70
2022-09-24T02:03:00.670Z,11.32
2022-09-24T02:05:47.191Z,12.13
2022-09-24T02:08:28.566Z,12.45
2022-09-24T02:10:57.752Z,10.50
2022-09-24T02:13:26.486Z,13.13
2022-09-24T02:15:56.258Z,14.07
2022-09-24T02:18:25.323Z,15.38
2022-09-24T02:20:52.693Z,12.18
2022-09-24T02:23:20.213Z,14.25
2022-09-24T02:25:53.905Z,14.25
2022-09-24T02:28:20.587Z,15.27
2022-09-24T02:30:50.451Z,15.75
2022-09-24T02:33:36.080Z,16.38
2022-09-24T02:36:02.649Z,13.50
2022-09-24T02:38:29.123Z,14.88
2022-09-24T02:40:56.047Z,13.82
2022-09-24T02:43:22.510Z,15.85
2022-09-24T02:45:48.873Z,11.27
2022-09-24T02:48:15.235Z,14.70
2022-09-24T02:50:41.547Z,14.82
2022-09-24T02:53:07.941Z,13.02
2022-09-24T02:55:34.290Z,16.70
2022-09-24T02:58:00.606Z,14.13
2022-09-24T03:00:27.027Z,15.50
2022-09-24T03:02:54.002Z,14.38
2022-09-24T03:05:21.271Z,16.15
2022-09-24T03:07:47.621Z,11.68
2022-09-24T03:10:13.968Z,15.05
2022-09-24T03:12:42.184Z,15.43
2022-09-24T03:15:08.656Z,14.48
2022-09-24T03:17:35.037Z,15.40
2022-09-24T03:20:02.094Z,14.20
2022-09-24T03:22:28.411Z,15.43
2022-09-24T03:24:54.711Z,17.98
2022-09-24T03:27:21.416Z,17.30
2022-09-24T03:30:06.495Z,16.35
2022-09-24T03:32:33.772Z,15.15
2022-09-24T03:35:01.335Z,15.07
2022-09-24T03:37:27.725Z,17.48
2022-09-24T03:39:54.026Z,17.20
2022-09-24T03:42:20.350Z,20.73
2022-09-24T03:44:47.127Z,18.17
2022-09-24T03:47:13.558Z,15.85
2022-09-24T03:49:39.852Z,14.95
2022-09-24T03:52:06.175Z,18.73
2022-09-24T03:54:33.033Z,19.20
2022-09-24T03:56:59.362Z,18.27
2022-09-24T03:59:25.645Z,20.20
2022-09-24T04:01:52.241Z,20.67
2022-09-24T04:04:18.682Z,19.25
2022-09-24T04:06:45.114Z,20.30
2022-09-24T04:09:11.446Z,20.10
2022-09-24T04:11:37.991Z,22.05
2022-09-24T04:14:04.406Z,19.38
2022-09-24T04:16:30.875Z,20.30
2022-09-24T04:18:57.934Z,30.58
2022-09-24T04:21:24.351Z,20.75
2022-09-24T04:23:50.709Z,23.23
2022-09-24T04:26:17.330Z,19.67
2022-09-24T04:28:43.727Z,19.40
2022-09-24T04:31:10.120Z,19.58
2022-09-24T04:33:36.708Z,21.35
2022-09-24T04:36:03.123Z,17.80
2022-09-24T04:38:29.547Z,17.58
2022-09-24T04:41:04.758Z,17.52
2022-09-24T04:43:31.040Z,10.20
2022-09-24T04:45:58.805Z,14.18
2022-09-24T04:48:25.732Z,12.50
2022-09-24T04:50:52.366Z,18.80
2022-09-24T04:53:18.852Z,15.05
2022-09-24T04:55:45.210Z,13.32
2022-09-24T04:58:11.516Z,12.25
2022-09-24T05:00:38.303Z,11.55
2022-09-24T05:03:04.881Z,8.02
2022-09-24T05:05:32.344Z,7.57
2022-09-24T05:07:59.115Z,7.18
2022-09-24T05:10:26.263Z,5.45
2022-09-24T05:12:53.084Z,3.88
2022-09-24T05:15:19.968Z,6.15
2022-09-24T05:17:46.411Z,8.45
2022-09-24T05:20:12.790Z,3.55
2022-09-24T05:22:42.650Z,6.25
2022-09-24T05:25:09.093Z,4.95
2022-09-24T05:27:35.891Z,3.25
2022-09-24T05:30:02.251Z,3.03
2022-09-24T05:32:28.582Z,3.28
2022-09-24T05:34:54.966Z,3.22
2022-09-24T05:37:21.319Z,4.40
2022-09-24T05:39:47.675Z,2.83
2022-09-24T05:42:14.918Z,3.70
2022-09-24T05:44:44.851Z,4.38
2022-09-24T05:47:12.865Z,4.40
2022-09-24T05:49:39.327Z,5.85
2022-09-24T05:52:06.182Z,5.05
2022-09-24T05:54:33.180Z,3.88
2022-09-24T05:57:00.034Z,5.20
2022-09-24T05:59:26.321Z,3.85
2022-09-24T06:01:52.675Z,3.60
2022-09-24T06:04:19.127Z,3.20
2022-09-24T06:06:45.449Z,3.60
2022-09-24T06:09:11.839Z,3.45
2022-09-24T06:11:40.624Z,1.77
2022-09-24T06:14:08.550Z,4.57
2022-09-24T06:16:35.215Z,3.28
2022-09-24T06:19:01.730Z,2.60
2022-09-24T06:21:28.061Z,6.00
2022-09-24T06:23:54.607Z,2.92
2022-09-24T06:26:20.914Z,5.70
2022-09-24T06:28:47.271Z,4.82
2022-09-24T06:31:13.840Z,3.78
2022-09-24T06:33:40.908Z,5.95
2022-09-24T06:36:07.591Z,3.53
2022-09-24T06:38:35.268Z,6.05
2022-09-24T06:41:02.270Z,4.18
2022-09-24T06:43:28.823Z,5.43
2022-09-24T06:45:58.449Z,6.72
2022-09-24T06:48:24.971Z,3.60
2022-09-24T06:50:51.567Z,6.50
2022-09-24T06:53:18.728Z,9.30
2022-09-24T06:55:46.950Z,7.40
2022-09-24T06:58:20.653Z,5.32
2022-09-24T07:01:02.240Z,9.80
2022-09-24T07:03:29.853Z,4.72
2022-09-24T07:05:56.371Z,4.75
2022-09-24T07:08:22.696Z,5.15
2022-09-24T07:10:49.220Z,4.43
2022-09-24T07:13:16.219Z,6.18
2022-09-24T07:15:43.093Z,8.88
2022-09-24T07:18:09.614Z,7.10
2022-09-24T07:20:36.974Z,6.72
2022-09-24T07:23:07.608Z,5.35
2022-09-24T07:25:34.487Z,5.30
2022-09-24T07:28:02.271Z,8.95
2022-09-24T07:30:28.591Z,6.38
2022-09-24T07:32:55.705Z,4.10
2022-09-24T07:35:22.179Z,10.70
2022-09-24T07:37:48.617Z,5.88
2022-09-24T07:40:15.070Z,6.18
2022-09-24T07:42:48.556Z,3.08
2022-09-24T07:45:17.130Z,4.53
2022-09-24T07:47:43.551Z,9.55
2022-09-24T07:50:10.115Z,6.97
2022-09-24T07:52:36.446Z,5.38
2022-09-24T07:55:02.780Z,5.57
2022-09-24T07:57:29.190Z,4.25
2022-09-24T07:59:55.517Z,5.28
2022-09-24T08:02:22.411Z,5.05
2022-09-24T08:04:49.146Z,7.00
2022-09-24T08:07:16.073Z,6.35
2022-09-24T08:09:42.499Z,7.72
2022-09-24T08:12:09.528Z,4.53
2022-09-24T08:14:35.881Z,7.80
2022-09-24T08:17:02.759Z,5.20
2022-09-24T08:19:30.910Z,6.88
2022-09-24T08:21:58.005Z,11.00
2022-09-24T08:24:24.309Z,6.63
2022-09-24T08:26:50.607Z,5.68
2022-09-24T08:29:16.972Z,9.00
2022-09-24T08:31:43.372Z,8.80
2022-09-24T08:34:09.741Z,9.27
2022-09-24T08:36:40.660Z,10.88
2022-09-24T08:39:09.156Z,6.93
2022-09-24T08:42:01.789Z,9.15
2022-09-24T08:44:46.913Z,11.57
2022-09-24T08:47:25.410Z,8.75
2022-09-24T08:49:55.800Z,10.68
2022-09-24T08:52:41.647Z,6.68
2022-09-24T08:55:14.256Z,8.05
2022-09-24T08:57:47.909Z,4.78
2022-09-24T09:00:15.142Z,6.93
2022-09-24T09:03:04.294Z,9.45
2022-09-24T09:05:49.805Z,6.97
2022-09-24T09:08:41.402Z,14.07
2022-09-24T09:11:04.733Z,4.47
2022-09-24T09:13:36.217Z,7.80
2022-09-24T09:16:07.035Z,7.05
2022-09-24T09:18:37.552Z,2.47
2022-09-24T09:21:10.752Z,6.70
2022-09-24T09:23:46.981Z,5.70
2022-09-24T09:26:13.385Z,7.68
2022-09-24T09:28:39.717Z,5.93
2022-09-24T09:31:07.101Z,8.15
2022-09-24T09:33:59.823Z,9.57
2022-09-24T09:36:28.968Z,3.08
2022-09-24T09:38:58.135Z,4.00
2022-09-24T09:41:33.399Z,8.70
2022-09-24T09:44:01.658Z,9.38
2022-09-24T09:46:30.802Z,7.32
2022-09-24T09:48:59.872Z,6.72
2022-09-24T09:51:26.797Z,5.60
2022-09-24T09:54:00.473Z,6.22
2022-09-24T09:56:36.802Z,6.00
2022-09-24T09:59:07.163Z,7.05
2022-09-24T10:01:34.982Z,4.25
2022-09-24T10:04:05.366Z,8.23
2022-09-24T10:06:33.449Z,4.18
2022-09-24T10:09:13.877Z,2.97
2022-09-24T10:11:41.055Z,4.10
2022-09-24T10:14:10.625Z,5.97
2022-09-24T10:16:40.951Z,4.32
2022-09-24T10:19:21.243Z,7.10
2022-09-24T10:21:47.814Z,6.18
2022-09-24T10:24:19.597Z,8.63
2022-09-24T10:26:46.636Z,10.80
2022-09-24T10:29:40.680Z,8.60
2022-09-24T10:32:13.324Z,3.08
2022-09-24T10:34:39.622Z,3.13
2022-09-24T10:37:13.809Z,4.25
2022-09-24T10:39:40.411Z,3.63
2022-09-24T10:42:07.910Z,6.28
2022-09-24T10:44:35.739Z,3.80
2022-09-24T10:47:25.388Z,3.38
2022-09-24T10:49:57.858Z,5.15
2022-09-24T10:52:24.167Z,7.72
2022-09-24T10:55:02.628Z,5.13
2022-09-24T10:57:43.579Z,4.53
2022-09-24T11:00:17.021Z,6.22
2022-09-24T11:02:49.283Z,5.60
2022-09-24T11:05:21.069Z,14.25
2022-09-24T11:08:06.637Z,9.15
2022-09-24T11:10:45.527Z,7.35
2022-09-24T11:13:21.595Z,4.85
2022-09-24T11:16:06.905Z,5.60
2022-09-24T11:18:39.532Z,3.53
2022-09-24T11:21:21.020Z,3.03
2022-09-24T11:24:02.402Z,7.40
2022-09-24T11:26:47.392Z,6.32
2022-09-24T11:29:37.513Z,4.75
2022-09-24T11:32:10.335Z,8.20
2022-09-24T11:34:44.401Z,4.25
2022-09-24T11:37:10.695Z,5.88
2022-09-24T11:39:40.148Z,8.57
2022-09-24T11:42:16.440Z,7.05
2022-09-24T11:44:55.000Z,4.20
2022-09-24T11:47:26.469Z,4.85
2022-09-24T11:50:01.277Z,4.63
2022-09-24T11:52:38.836Z,7.10
2022-09-24T11:55:15.067Z,3.42
2022-09-24T11:57:48.470Z,6.45
2022-09-24T12:00:17.605Z,3.65
2022-09-24T12:03:04.161Z,5.20
2022-09-24T12:05:33.920Z,5.05
2022-09-24T12:08:03.660Z,4.82
2022-09-24T12:10:32.776Z,8.43
2022-09-24T12:13:18.549Z,6.28
2022-09-24T12:16:07.345Z,6.15
2022-09-24T12:18:33.797Z,3.65
2022-09-24T12:21:02.630Z,6.75
2022-09-24T12:23:30.379Z,4.68
2022-09-24T12:26:01.153Z,5.45
2022-09-24T12:28:48.141Z,5.70
2022-09-24T12:32:02.489Z,3.50
2022-09-24T12:34:40.914Z,5.43
2022-09-24T12:37:10.301Z,5.35
2022-09-24T12:39:42.775Z,3.83
2022-09-24T12:42:09.901Z,3.03
2022-09-24T12:44:45.025Z,8.95
2022-09-24T12:47:17.021Z,10.23
2022-09-24T12:49:48.050Z,3.53
2022-09-24T12:52:17.426Z,5.30
2022-09-24T12:54:44.202Z,6.63
2022-09-24T12:57:16.805Z,7.47
2022-09-24T12:59:55.013Z,5.88
2022-09-24T13:02:23.833Z,4.13
2022-09-24T13:04:51.749Z,5.57
2022-09-24T13:07:31.785Z,11.05
2022-09-24T13:10:09.691Z,6.38
2022-09-24T13:12:36.409Z,21.33
2022-09-24T13:15:04.780Z,4.65
2022-09-24T13:17:33.094Z,5.55
2022-09-24T13:20:05.021Z,5.43
2022-09-24T13:22:35.834Z,3.95
2022-09-24T13:25:08.131Z,2.75
2022-09-24T13:27:37.762Z,8.48
2022-09-24T13:30:28.467Z,4.68
2022-09-24T13:32:58.908Z,7.18
2022-09-24T13:35:29.257Z,9.35
2022-09-24T13:38:03.237Z,3.60
2022-09-24T13:40:33.439Z,2.53
2022-09-24T13:43:14.668Z,4.78
2022-09-24T13:45:42.472Z,3.50
2022-09-24T13:48:27.768Z,4.20
2022-09-24T13:50:54.403Z,1.93
2022-09-24T13:53:42.156Z,4.47
2022-09-24T13:56:15.543Z,3.30
2022-09-24T13:58:43.106Z,5.82
2022-09-24T14:01:13.250Z,2.50
2022-09-24T14:03:40.061Z,5.88
2022-09-24T14:06:13.212Z,2.33
2022-09-24T14:08:44.473Z,2.95
2022-09-24T14:11:15.489Z,4.35
2022-09-24T14:13:45.648Z,4.28
2022-09-24T14:16:19.914Z,4.63
2022-09-24T14:18:46.808Z,7.53
2022-09-24T14:21:17.262Z,4.35
2022-09-24T14:23:47.350Z,4.85
2022-09-24T14:26:32.232Z,3.80
2022-09-24T14:29:00.169Z,4.72
2022-09-24T14:31:26.962Z,2.65
2022-09-24T14:33:53.507Z,2.97
2022-09-24T14:36:27.594Z,6.72
2022-09-24T14:38:57.908Z,4.30
2022-09-24T14:41:27.817Z,4.65
2022-09-24T14:44:06.213Z,3.20
2022-09-24T14:46:34.175Z,4.70
2022-09-24T14:49:04.726Z,5.28
2022-09-24T14:51:31.568Z,5.82
2022-09-24T14:54:02.359Z,1.83
2022-09-24T14:56:33.419Z,6.38
2022-09-24T14:59:00.413Z,4.28
2022-09-24T15:01:30.917Z,4.00
2022-09-24T15:04:08.154Z,4.63
2022-09-24T15:06:37.793Z,3.28
2022-09-24T15:09:05.998Z,5.28
2022-09-24T15:11:34.481Z,9.20
2022-09-24T15:14:02.987Z,2.33
2022-09-24T15:16:34.518Z,1.88
2022-09-24T15:19:06.697Z,1.52
2022-09-24T15:21:35.868Z,4.65
2022-09-24T15:24:02.540Z,2.95
2022-09-24T15:26:30.131Z,4.78
2022-09-24T15:29:00.137Z,5.97
2022-09-24T15:31:26.727Z,2.65
2022-09-24T15:33:53.182Z,7.85
2022-09-24T15:36:21.148Z,2.63
2022-09-24T15:38:48.401Z,5.15
2022-09-24T15:41:14.837Z,2.97
2022-09-24T15:43:41.319Z,4.10
2022-09-24T15:46:07.674Z,8.88
2022-09-24T15:48:34.045Z,3.63
2022-09-24T15:51:05.861Z,2.17
2022-09-24T15:53:35.595Z,4.35
2022-09-24T15:56:03.465Z,3.83
2022-09-24T15:58:29.825Z,4.22
2022-09-24T16:00:56.238Z,4.20
2022-09-24T16:03:24.876Z,3.17
2022-09-24T16:05:51.441Z,4.63
2022-09-24T16:08:18.053Z,4.20
2022-09-24T16:10:45.071Z,7.00
2022-09-24T16:13:12.057Z,8.68
2022-09-24T16:15:38.909Z,3.35
2022-09-24T16:18:06.106Z,6.15
2022-09-24T16:20:32.677Z,4.38
2022-09-24T16:22:59.161Z,7.60
2022-09-24T16:25:25.625Z,6.80
2022-09-24T16:27:52.422Z,2.50
2022-09-24T16:30:18.838Z,4.05
2022-09-24T16:32:45.186Z,2.67
2022-09-24T16:35:13.190Z,2.38
2022-09-24T16:37:40.056Z,1.88
2022-09-24T16:40:06.897Z,3.55
2022-09-24T16:42:33.594Z,2.33
2022-09-24T16:45:00.210Z,4.65
2022-09-24T16:47:26.578Z,1.80
2022-09-24T16:49:52.863Z,3.38
2022-09-24T16:52:19.183Z,7.35
2022-09-24T16:54:45.528Z,4.75
2022-09-24T16:57:11.836Z,6.10
2022-09-24T16:59:38.202Z,1.85
2022-09-24T17:02:04.661Z,6.95
2022-09-24T17:04:31.116Z,2.17
2022-09-24T17:06:57.661Z,3.30
2022-09-24T17:09:42.742Z,2.13
2022-09-24T17:12:10.892Z,4.70
2022-09-24T17:14:38.360Z,9.23
2022-09-24T17:17:04.993Z,4.55
2022-09-24T17:19:31.404Z,3.33
2022-09-24T17:21:58.950Z,4.22
2022-09-24T17:24:25.527Z,4.32
2022-09-24T17:26:51.957Z,3.13
2022-09-24T17:29:20.795Z,3.30
2022-09-24T17:31:47.387Z,3.55
2022-09-24T17:34:15.190Z,3.22
2022-09-24T17:36:41.743Z,5.85
2022-09-24T17:39:08.278Z,5.50
2022-09-24T17:41:35.048Z,9.48
2022-09-24T17:44:01.511Z,2.92
2022-09-24T17:46:28.857Z,9.10
2022-09-24T17:48:56.193Z,3.53
2022-09-24T17:51:24.096Z,4.85
2022-09-24T17:53:51.672Z,3.33
2022-09-24T17:56:18.070Z,4.07
2022-09-24T17:58:45.152Z,4.72
2022-09-24T18:01:12.789Z,4.88
2022-09-24T18:03:39.435Z,4.03
2022-09-24T18:06:06.823Z,7.57
2022-09-24T18:08:43.558Z,5.32
2022-09-24T18:11:13.868Z,3.65
2022-09-24T18:13:40.452Z,2.85
2022-09-24T18:16:08.350Z,6.18
2022-09-24T18:18:35.061Z,3.30
2022-09-24T18:21:05.526Z,4.95
2022-09-24T18:23:32.508Z,7.07
2022-09-24T18:26:11.418Z,3.40
2022-09-24T18:28:41.473Z,2.75
2022-09-24T18:31:10.423Z,4.65
2022-09-24T18:33:39.273Z,4.03
2022-09-24T18:36:07.267Z,5.28
2022-09-24T18:38:34.001Z,4.93
2022-09-24T18:41:01.585Z,5.80
2022-09-24T18:43:28.393Z,7.25
2022-09-24T18:45:54.861Z,6.10
2022-09-24T18:48:21.370Z,8.27
2022-09-24T18:50:48.069Z,3.85
2022-09-24T18:53:16.187Z,4.85
2022-09-24T18:55:43.036Z,3.08
2022-09-24T18:58:11.083Z,3.05
2022-09-24T19:00:50.835Z,2.95
2022-09-24T19:03:18.418Z,7.43
2022-09-24T19:05:49.391Z,6.03
2022-09-24T19:08:16.033Z,5.35
2022-09-24T19:10:42.918Z,10.02
2022-09-24T19:13:09.451Z,7.00
2022-09-24T19:15:39.326Z,4.22
2022-09-24T19:18:07.260Z,3.60
2022-09-24T19:20:37.446Z,5.18
2022-09-24T19:23:04.007Z,7.80
2022-09-24T19:25:37.303Z,3.55
2022-09-24T19:28:04.568Z,7.80
2022-09-24T19:30:31.395Z,5.50
2022-09-24T19:32:59.818Z,7.88
2022-09-24T19:35:26.960Z,6.50
2022-09-24T19:37:53.357Z,7.97
2022-09-24T19:40:19.808Z,3.58
2022-09-24T19:42:47.056Z,6.57
2022-09-24T19:45:13.507Z,6.38
2022-09-24T19:47:39.917Z,6.28
2022-09-24T19:50:06.443Z,5.70
2022-09-24T19:52:32.861Z,6.40
2022-09-24T19:54:59.254Z,5.85
2022-09-24T19:57:25.632Z,5.78
2022-09-24T19:59:51.952Z,6.57
2022-09-24T20:02:18.436Z,4.88
2022-09-24T20:04:44.825Z,6.55
2022-09-24T20:07:11.238Z,7.72
2022-09-24T20:09:37.558Z,3.97
2022-09-24T20:12:04.654Z,5.43
2022-09-24T20:14:33.658Z,5.00
2022-09-24T20:17:00.695Z,4.95
2022-09-24T20:19:27.085Z,4.22
2022-09-24T20:21:57.378Z,9.85
2022-09-24T20:24:23.746Z,7.38
2022-09-24T20:27:08.428Z,10.77
2022-09-24T20:29:34.801Z,3.63
2022-09-24T20:32:01.447Z,6.07
2022-09-24T20:34:33.410Z,3.65
2022-09-24T20:37:04.274Z,7.75
2022-09-24T20:39:31.305Z,8.07
2022-09-24T20:42:02.267Z,5.85
2022-09-24T20:44:32.251Z,6.15
2022-09-24T20:46:59.085Z,9.18
2022-09-24T20:49:25.752Z,7.07
2022-09-24T20:51:57.079Z,5.88
2022-09-24T20:54:23.964Z,4.10
2022-09-24T20:56:50.780Z,5.97
2022-09-24T20:59:17.215Z,4.03
2022-09-24T21:01:45.058Z,5.88
2022-09-24T21:04:11.805Z,9.85
2022-09-24T21:06:38.287Z,2.03
2022-09-24T21:09:04.626Z,3.72
2022-09-24T21:11:31.354Z,5.65
2022-09-24T21:14:01.109Z,3.88
2022-09-24T21:16:28.986Z,4.60
2022-09-24T21:18:55.623Z,5.50
2022-09-24T21:21:23.246Z,4.80
2022-09-24T21:23:50.940Z,8.07
2022-09-24T21:26:20.876Z,7.70
2022-09-24T21:28:48.143Z,6.93
2022-09-24T21:31:15.052Z,6.38
2022-09-24T21:33:44.683Z,4.55
2022-09-24T21:36:12.752Z,6.78
2022-09-24T21:38:39.270Z,7.32
2022-09-24T21:41:08.353Z,5.72
2022-09-24T21:43:36.387Z,8.30
2022-09-24T21:46:05.349Z,4.45
2022-09-24T21:48:32.532Z,5.40
2022-09-24T21:51:03.524Z,12.90
2022-09-24T21:53:29.974Z,8.88
2022-09-24T21:55:56.333Z,5.70
2022-09-24T21:58:22.787Z,4.57
2022-09-24T22:00:49.205Z,2.55
2022-09-24T22:03:15.564Z,6.40
2022-09-24T22:05:45.634Z,3.80
2022-09-24T22:08:13.048Z,3.65
2022-09-24T22:10:40.862Z,3.33
2022-09-24T22:13:12.822Z,4.57
2022-09-24T22:15:40.016Z,6.00
2022-09-24T22:18:06.343Z,3.00
2022-09-24T22:20:32.834Z,4.45
2022-09-24T22:22:59.144Z,2.83
2022-09-24T22:25:25.582Z,2.42
2022-09-24T22:27:52.018Z,5.03
2022-09-24T22:30:18.416Z,3.92
2022-09-24T22:32:44.746Z,4.10
2022-09-24T22:35:29.836Z,3.10
2022-09-24T22:37:57.008Z,5.95
2022-09-24T22:40:23.413Z,3.50
2022-09-24T22:42:49.890Z,8.18
2022-09-24T22:45:16.420Z,3.80
2022-09-24T22:47:42.806Z,2.78
2022-09-24T22:50:09.536Z,8.93
2022-09-24T22:52:36.629Z,2.10
2022-09-24T22:55:03.077Z,4.63
2022-09-24T22:57:29.429Z,3.05
2022-09-24T22:59:55.947Z,5.70
2022-09-24T23:02:22.271Z,5.25
2022-09-24T23:04:48.660Z,4.43
2022-09-24T23:07:16.550Z,1.38
2022-09-24T23:09:42.923Z,2.85
2022-09-24T23:12:09.229Z,6.15
2022-09-24T23:14:35.602Z,4.22
2022-09-24T23:17:01.918Z,2.47
2022-09-24T23:19:48.363Z,4.68
2022-09-24T23:22:17.494Z,6.47
2022-09-24T23:24:44.175Z,3.78
2022-09-24T23:27:10.708Z,5.85
2022-09-24T23:29:37.519Z,4.07
2022-09-24T23:32:04.389Z,2.15
2022-09-24T23:34:30.823Z,2.25
2022-09-24T23:36:57.211Z,2.05
2022-09-24T23:39:23.577Z,3.42
2022-09-24T23:41:49.939Z,1.13
2022-09-24T23:44:16.393Z,2.95
2022-09-24T23:46:42.800Z,0.82
2022-09-24T23:49:09.625Z,1.25
2022-09-24T23:51:35.996Z,2.65
2022-09-24T23:54:02.309Z,2.33
2022-09-24T23:56:28.716Z,2.22
2022-09-24T23:58:55.208Z,1.27
